createdAt,value
2023-07-03T00:00:29.478Z,14.27
2023-07-03T00:02:57.691Z,14.68
2023-07-03T00:05:27.688Z,15.27
2023-07-03T00:08:01.673Z,15.68
2023-07-03T00:10:30.966Z,15.23
2023-07-03T00:12:59.041Z,15.95
2023-07-03T00:15:27.463Z,16.23
2023-07-03T00:17:55.584Z,17.45
2023-07-03T00:20:30.213Z,18.08
2023-07-03T00:23:05.743Z,18.70
2023-07-03T00:25:33.959Z,18.35
2023-07-03T00:28:02.197Z,19.23
2023-07-03T00:30:31.450Z,19.55
2023-07-03T00:33:04.847Z,19.73
2023-07-03T00:35:33.960Z,20.00
2023-07-03T00:38:03.466Z,20.42
2023-07-03T00:40:31.565Z,20.02
2023-07-03T00:43:00.164Z,19.95
2023-07-03T00:45:28.488Z,19.45
2023-07-03T00:47:57.006Z,19.88
2023-07-03T00:50:25.583Z,19.25
2023-07-03T00:53:05.190Z,21.27
2023-07-03T00:55:38.797Z,21.23
2023-07-03T00:58:12.042Z,21.92
2023-07-03T01:00:48.956Z,23.10
2023-07-03T01:03:25.756Z,23.13
2023-07-03T01:05:56.940Z,24.00
2023-07-03T01:08:27.299Z,24.95
2023-07-03T01:10:57.918Z,26.48
2023-07-03T01:13:34.278Z,28.42
2023-07-03T01:16:08.036Z,29.52
2023-07-03T01:18:40.474Z,30.95
2023-07-03T01:21:17.522Z,31.65
2023-07-03T01:23:52.448Z,31.88
2023-07-03T01:26:23.851Z,32.15
2023-07-03T01:28:55.981Z,33.00
2023-07-03T01:31:26.927Z,33.22
2023-07-03T01:33:57.147Z,34.15
2023-07-03T01:36:27.189Z,35.60
2023-07-03T01:38:56.557Z,35.53
2023-07-03T01:41:26.638Z,37.40
2023-07-03T01:43:55.614Z,38.42
2023-07-03T01:46:24.789Z,39.47
2023-07-03T01:48:53.057Z,39.55
2023-07-03T01:51:27.825Z,40.40
2023-07-03T01:54:08.938Z,40.25
2023-07-03T01:56:43.716Z,40.30
2023-07-03T01:59:14.141Z,40.53
2023-07-03T02:01:57.550Z,40.83
2023-07-03T02:04:30.073Z,42.22
2023-07-03T02:07:01.203Z,43.63
2023-07-03T02:09:30.022Z,44.30
2023-07-03T02:12:01.796Z,45.20
2023-07-03T02:14:31.868Z,46.20
2023-07-03T02:17:00.146Z,47.33
2023-07-03T02:19:30.248Z,48.90
2023-07-03T02:21:58.754Z,51.50
2023-07-03T02:24:27.286Z,52.13
2023-07-03T02:26:56.168Z,54.10
2023-07-03T02:29:26.052Z,55.80
2023-07-03T02:31:54.148Z,56.55
2023-07-03T02:34:23.195Z,57.53
2023-07-03T02:36:51.585Z,58.00
2023-07-03T02:39:21.018Z,58.63
2023-07-03T02:41:51.180Z,59.47
2023-07-03T02:44:19.330Z,60.05
2023-07-03T02:46:48.898Z,60.90
2023-07-03T02:49:18.526Z,61.60
2023-07-03T02:51:46.809Z,62.25
2023-07-03T02:54:15.045Z,63.42
2023-07-03T02:56:43.671Z,65.43
2023-07-03T02:59:12.890Z,66.45
2023-07-03T03:01:41.088Z,67.68
2023-07-03T03:04:10.740Z,68.47
2023-07-03T03:06:39.136Z,68.40
2023-07-03T03:09:07.372Z,69.43
2023-07-03T03:11:37.062Z,70.00
2023-07-03T03:14:06.352Z,69.20
2023-07-03T03:16:36.185Z,68.15
2023-07-03T03:19:04.393Z,68.22
2023-07-03T03:21:33.963Z,68.88
2023-07-03T03:24:02.283Z,68.88
2023-07-03T03:26:30.392Z,67.72
2023-07-03T03:28:58.615Z,69.05
2023-07-03T03:31:28.076Z,70.10
2023-07-03T03:34:01.182Z,70.88
2023-07-03T03:36:29.363Z,72.07
2023-07-03T03:39:05.959Z,72.60
2023-07-03T03:41:36.595Z,71.80
2023-07-03T03:44:05.575Z,71.10
2023-07-03T03:46:33.781Z,69.22
2023-07-03T03:49:01.945Z,69.18
2023-07-03T03:51:30.180Z,68.35
2023-07-03T03:54:04.552Z,67.40
2023-07-03T03:56:34.344Z,67.68
2023-07-03T03:59:04.526Z,66.28
2023-07-03T04:01:38.948Z,65.47
2023-07-03T04:04:07.750Z,66.00
2023-07-03T04:06:36.697Z,65.22
2023-07-03T04:09:06.585Z,66.07
2023-07-03T04:11:34.704Z,64.38
2023-07-03T04:14:03.116Z,64.05
2023-07-03T04:16:36.838Z,62.90
2023-07-03T04:19:09.347Z,63.00
2023-07-03T04:21:42.784Z,64.13
2023-07-03T04:24:13.529Z,63.70
2023-07-03T04:26:42.761Z,61.60
2023-07-03T04:29:10.883Z,61.00
2023-07-03T04:31:43.686Z,59.85
2023-07-03T04:34:16.894Z,60.10
2023-07-03T04:36:45.741Z,57.88
2023-07-03T04:39:15.129Z,57.05
2023-07-03T04:41:43.259Z,55.55
2023-07-03T04:44:13.676Z,53.50
2023-07-03T04:46:49.160Z,52.13
2023-07-03T04:49:28.936Z,50.83
2023-07-03T04:52:07.083Z,49.83
2023-07-03T04:54:48.864Z,48.60
2023-07-03T04:57:17.042Z,49.22
2023-07-03T04:59:52.105Z,46.63
2023-07-03T05:02:26.481Z,46.47
2023-07-03T05:04:58.829Z,44.45
2023-07-03T05:07:27.046Z,42.85
2023-07-03T05:10:05.364Z,42.55
2023-07-03T05:12:39.167Z,40.13
2023-07-03T05:15:10.321Z,37.75
2023-07-03T05:17:40.060Z,35.50
2023-07-03T05:20:11.368Z,34.33
2023-07-03T05:22:39.701Z,33.30
2023-07-03T05:25:11.748Z,32.45
2023-07-03T05:27:40.421Z,32.80
2023-07-03T05:30:10.305Z,30.00
2023-07-03T05:32:43.160Z,28.30
2023-07-03T05:35:12.852Z,26.20
2023-07-03T05:37:41.040Z,27.55
2023-07-03T05:40:11.730Z,26.27
2023-07-03T05:42:39.800Z,26.77
2023-07-03T05:45:10.183Z,24.60
2023-07-03T05:47:39.349Z,22.50
2023-07-03T05:50:08.854Z,20.65
2023-07-03T05:52:40.982Z,19.13
2023-07-03T05:55:10.901Z,17.70
2023-07-03T05:57:39.393Z,17.67
2023-07-03T06:00:14.461Z,16.80
2023-07-03T06:02:56.704Z,16.17
2023-07-03T06:05:26.086Z,16.27
2023-07-03T06:07:54.211Z,16.20
2023-07-03T06:10:24.869Z,15.90
2023-07-03T06:12:57.187Z,15.50
2023-07-03T06:15:26.996Z,15.07
2023-07-03T06:17:56.791Z,15.70
2023-07-03T06:20:25.660Z,14.70
2023-07-03T06:22:53.807Z,13.18
2023-07-03T06:25:23.930Z,11.13
2023-07-03T06:27:56.966Z,10.90
2023-07-03T06:30:26.311Z,10.10
2023-07-03T06:32:54.580Z,9.50
2023-07-03T06:35:22.761Z,9.18
2023-07-03T06:37:58.430Z,8.65
2023-07-03T06:40:29.273Z,7.93
2023-07-03T06:42:57.601Z,8.32
2023-07-03T06:45:29.407Z,7.55
2023-07-03T06:47:58.291Z,8.05
2023-07-03T06:50:26.477Z,7.32
2023-07-03T06:52:56.829Z,6.90
2023-07-03T06:55:26.022Z,6.07
2023-07-03T06:57:55.435Z,5.82
2023-07-03T07:00:23.859Z,6.13
2023-07-03T07:02:52.050Z,6.18
2023-07-03T07:05:27.112Z,7.30
2023-07-03T07:07:56.215Z,6.05
2023-07-03T07:10:25.580Z,5.53
2023-07-03T07:12:55.043Z,5.97
2023-07-03T07:15:23.187Z,5.40
2023-07-03T07:17:52.625Z,5.30
2023-07-03T07:20:21.093Z,4.95
2023-07-03T07:22:50.438Z,6.10
2023-07-03T07:25:18.577Z,5.43
2023-07-03T07:27:47.997Z,5.22
2023-07-03T07:30:18.560Z,5.05
2023-07-03T07:32:49.038Z,4.90
2023-07-03T07:35:17.689Z,5.53
2023-07-03T07:37:49.985Z,5.03
2023-07-03T07:40:19.183Z,5.15
2023-07-03T07:42:47.417Z,4.95
2023-07-03T07:45:15.591Z,5.85
2023-07-03T07:47:45.164Z,5.13
2023-07-03T07:50:14.068Z,5.78
2023-07-03T07:52:42.202Z,5.30
2023-07-03T07:55:15.494Z,5.45
2023-07-03T07:57:45.966Z,5.22
2023-07-03T08:00:15.436Z,5.53
2023-07-03T08:02:46.109Z,5.47
2023-07-03T08:05:14.584Z,5.28
2023-07-03T08:07:42.750Z,5.68
2023-07-03T08:10:16.182Z,5.47
2023-07-03T08:12:51.024Z,5.90
2023-07-03T08:15:20.658Z,5.35
2023-07-03T08:17:51.662Z,5.47
2023-07-03T08:20:20.192Z,5.65
2023-07-03T08:22:48.396Z,6.03
2023-07-03T08:25:17.344Z,6.20
2023-07-03T08:27:47.596Z,6.03
2023-07-03T08:30:17.367Z,6.03
2023-07-03T08:32:56.408Z,6.25
2023-07-03T08:37:56.754Z,6.20
2023-07-03T08:40:25.514Z,6.68
2023-07-03T08:43:00.579Z,6.80
2023-07-03T08:45:37.495Z,6.22
2023-07-03T08:48:12.860Z,6.78
2023-07-03T08:50:46.176Z,6.60
2023-07-03T08:53:19.502Z,6.18
2023-07-03T08:55:52.614Z,6.57
2023-07-03T08:58:22.488Z,6.40
2023-07-03T09:01:06.942Z,6.50
2023-07-03T09:03:57.982Z,6.30
2023-07-03T09:06:36.380Z,5.95
2023-07-03T09:09:12.905Z,5.93
2023-07-03T09:11:48.124Z,5.97
2023-07-03T09:14:25.124Z,6.28
2023-07-03T09:16:53.907Z,6.97
2023-07-03T09:19:27.293Z,6.80
2023-07-03T09:22:00.000Z,6.40
2023-07-03T09:24:31.178Z,7.40
2023-07-03T09:27:06.111Z,6.93
2023-07-03T09:29:37.667Z,9.13
2023-07-03T09:32:06.897Z,7.68
2023-07-03T09:35:09.789Z,8.55
2023-07-03T09:37:39.903Z,8.85
2023-07-03T09:40:11.384Z,9.80
2023-07-03T09:42:39.730Z,9.85
2023-07-03T09:45:16.234Z,9.40
2023-07-03T09:47:49.910Z,9.45
2023-07-03T09:50:26.727Z,8.93
2023-07-03T09:53:07.602Z,10.35
2023-07-03T09:55:42.213Z,9.80
2023-07-03T09:58:16.933Z,9.07
2023-07-03T10:00:48.958Z,9.95
2023-07-03T10:08:31.628Z,10.05
2023-07-03T10:13:54.542Z,10.73
2023-07-03T10:16:26.219Z,10.43
2023-07-03T10:19:00.262Z,10.25
2023-07-03T10:21:30.769Z,11.25
2023-07-03T10:24:00.715Z,11.18
2023-07-03T10:26:34.170Z,10.43
2023-07-03T10:29:08.262Z,10.93
2023-07-03T10:31:50.826Z,10.68
2023-07-03T10:34:26.774Z,11.30
2023-07-03T10:37:02.900Z,10.93
2023-07-03T10:39:38.761Z,11.82
2023-07-03T10:42:13.319Z,12.20
2023-07-03T10:44:44.338Z,12.02
2023-07-03T10:47:21.329Z,12.15
2023-07-03T10:49:49.658Z,11.93
2023-07-03T10:52:29.090Z,11.68
2023-07-03T10:55:07.176Z,11.32
2023-07-03T10:57:51.546Z,10.80
2023-07-03T11:00:25.044Z,11.98
2023-07-03T11:03:02.661Z,11.07
2023-07-03T11:05:36.645Z,11.98
2023-07-03T11:08:20.087Z,11.57
2023-07-03T11:11:00.852Z,11.77
2023-07-03T11:13:44.429Z,11.68
2023-07-03T11:16:15.623Z,11.80
2023-07-03T11:24:22.720Z,11.57
2023-07-03T11:29:30.354Z,11.68
2023-07-03T11:31:59.602Z,11.38
2023-07-03T11:40:34.593Z,11.95
2023-07-03T11:46:06.513Z,12.07
2023-07-03T11:48:42.619Z,10.98
2023-07-03T11:51:13.360Z,11.57
2023-07-03T11:53:45.653Z,11.82
2023-07-03T11:56:37.980Z,11.55
2023-07-03T11:59:07.823Z,12.00
2023-07-03T12:01:38.108Z,11.70
2023-07-03T12:04:09.188Z,10.73
2023-07-03T12:06:49.085Z,11.05
2023-07-03T12:09:35.411Z,12.05
2023-07-03T12:12:17.499Z,11.68
2023-07-03T12:14:57.845Z,11.45
2023-07-03T12:17:28.942Z,10.85
2023-07-03T12:20:05.674Z,11.82
2023-07-03T12:22:39.609Z,11.45
2023-07-03T12:25:10.423Z,11.15
2023-07-03T12:27:41.914Z,11.38
2023-07-03T12:30:13.543Z,11.27
2023-07-03T12:32:41.805Z,11.80
2023-07-03T12:35:15.365Z,10.45
2023-07-03T12:37:45.955Z,11.10
2023-07-03T12:40:15.667Z,11.30
2023-07-03T12:42:47.568Z,11.02
2023-07-03T12:45:20.255Z,10.98
2023-07-03T12:48:02.404Z,11.30
2023-07-03T12:50:30.649Z,11.75
2023-07-03T12:52:59.647Z,11.15
2023-07-03T12:55:36.205Z,11.00
2023-07-03T12:58:08.101Z,11.75
2023-07-03T13:00:37.843Z,11.45
2023-07-03T13:03:07.816Z,11.63
2023-07-03T13:05:38.202Z,12.10
2023-07-03T13:08:13.348Z,11.48
2023-07-03T13:10:41.514Z,11.55
2023-07-03T13:13:13.096Z,11.27
2023-07-03T13:15:43.390Z,10.65
2023-07-03T13:18:17.446Z,10.05
2023-07-03T13:20:57.454Z,11.93
2023-07-03T13:23:30.379Z,11.82
2023-07-03T13:25:59.378Z,11.88
2023-07-03T13:28:32.007Z,11.23
2023-07-03T13:31:08.140Z,10.95
2023-07-03T13:33:37.394Z,11.18
2023-07-03T13:36:23.005Z,11.38
2023-07-03T13:39:01.804Z,12.27
2023-07-03T13:41:30.105Z,10.93
2023-07-03T13:44:00.166Z,11.13
2023-07-03T13:46:28.902Z,11.55
2023-07-03T13:48:57.074Z,12.02
2023-07-03T13:51:25.133Z,11.93
2023-07-03T13:54:03.207Z,11.70
2023-07-03T13:56:39.053Z,12.07
2023-07-03T13:59:10.668Z,12.18
2023-07-03T14:01:40.164Z,12.57
2023-07-03T14:04:09.536Z,9.70
2023-07-03T14:06:37.791Z,12.25
2023-07-03T14:09:07.113Z,10.77
2023-07-03T14:11:35.364Z,11.55
2023-07-03T14:14:03.644Z,10.38
2023-07-03T14:16:33.218Z,12.30
2023-07-03T14:19:03.725Z,9.85
2023-07-03T14:21:34.895Z,10.82
2023-07-03T14:24:03.109Z,11.13
2023-07-03T14:26:31.216Z,11.52
2023-07-03T14:28:59.320Z,11.82
2023-07-03T14:31:27.534Z,11.85
2023-07-03T14:33:57.142Z,11.63
2023-07-03T14:36:25.362Z,11.27
2023-07-03T14:38:53.452Z,11.43
2023-07-03T14:41:21.601Z,11.50
2023-07-03T14:43:50.586Z,12.18
2023-07-03T14:46:18.832Z,11.77
2023-07-03T14:48:46.982Z,11.13
2023-07-03T14:51:16.435Z,12.55
2023-07-03T14:53:44.595Z,12.20
2023-07-03T14:56:12.692Z,12.70
2023-07-03T14:58:40.905Z,12.20
2023-07-03T15:01:09.043Z,10.60
2023-07-03T15:03:37.464Z,12.20
2023-07-03T15:06:08.100Z,13.52
2023-07-03T15:08:38.319Z,12.82
2023-07-03T15:11:06.502Z,11.93
2023-07-03T15:13:34.657Z,12.10
2023-07-03T15:16:02.822Z,12.70
2023-07-03T15:18:31.003Z,12.07
2023-07-03T15:20:59.355Z,12.20
2023-07-03T15:23:27.518Z,12.00
2023-07-03T15:26:07.112Z,12.35
2023-07-03T15:28:35.421Z,12.05
2023-07-03T15:31:04.284Z,11.38
2023-07-03T15:33:32.403Z,11.70
2023-07-03T15:36:01.552Z,12.20
2023-07-03T15:38:29.752Z,12.77
2023-07-03T15:41:00.753Z,12.63
2023-07-03T15:43:29.986Z,12.27
2023-07-03T15:46:05.819Z,12.40
2023-07-03T15:48:34.743Z,12.30
2023-07-03T15:51:03.077Z,12.90
2023-07-03T15:53:32.206Z,13.48
2023-07-03T15:56:04.156Z,13.25
2023-07-03T15:58:34.735Z,12.25
2023-07-03T16:01:06.559Z,12.45
2023-07-03T16:03:37.500Z,12.13
2023-07-03T16:06:07.505Z,13.77
2023-07-03T16:08:37.828Z,12.13
2023-07-03T16:11:08.057Z,12.10
2023-07-03T16:13:37.438Z,12.00
2023-07-03T16:16:06.250Z,12.68
2023-07-03T16:18:34.890Z,12.73
2023-07-03T16:21:04.405Z,11.93
2023-07-03T16:23:33.947Z,13.10
2023-07-03T16:26:06.515Z,12.85
2023-07-03T16:28:38.812Z,12.82
2023-07-03T16:31:08.259Z,12.70
2023-07-03T16:33:38.993Z,12.43
2023-07-03T16:36:09.069Z,12.90
2023-07-03T16:38:37.528Z,12.23
2023-07-03T16:41:10.379Z,13.02
2023-07-03T16:43:42.179Z,12.55
2023-07-03T16:46:12.902Z,12.43
2023-07-03T16:48:41.460Z,12.50
2023-07-03T16:51:11.247Z,12.38
2023-07-03T16:53:41.743Z,12.20
2023-07-03T16:56:12.220Z,12.90
2023-07-03T16:58:43.343Z,12.50
2023-07-03T17:01:13.358Z,12.30
2023-07-03T17:03:42.011Z,12.93
2023-07-03T17:06:14.665Z,12.40
2023-07-03T17:08:42.775Z,12.75
2023-07-03T17:11:12.347Z,12.27
2023-07-03T17:13:42.285Z,12.23
2023-07-03T17:16:10.590Z,12.43
2023-07-03T17:18:38.815Z,11.77
2023-07-03T17:21:06.968Z,11.95
2023-07-03T17:23:35.763Z,11.90
2023-07-03T17:26:04.308Z,11.43
2023-07-03T17:28:32.615Z,11.65
2023-07-03T17:31:04.560Z,12.88
2023-07-03T17:33:33.049Z,12.52
2023-07-03T17:36:02.717Z,12.15
2023-07-03T17:38:31.592Z,12.20
2023-07-03T17:40:59.630Z,11.32
2023-07-03T17:43:27.715Z,12.23
2023-07-03T17:45:56.027Z,12.00
2023-07-03T17:48:25.792Z,12.30
2023-07-03T17:50:53.957Z,11.55
2023-07-03T17:53:24.365Z,11.45
2023-07-03T17:55:52.717Z,11.57
2023-07-03T17:58:22.971Z,12.00
2023-07-03T18:00:53.431Z,12.23
2023-07-03T18:03:23.540Z,12.32
2023-07-03T18:05:56.374Z,12.07
2023-07-03T18:08:25.303Z,11.63
2023-07-03T18:10:53.424Z,11.30
2023-07-03T18:13:21.685Z,11.25
2023-07-03T18:15:50.510Z,11.77
2023-07-03T18:18:20.846Z,11.57
2023-07-03T18:20:49.491Z,11.38
2023-07-03T18:23:19.252Z,11.75
2023-07-03T18:25:48.588Z,12.45
2023-07-03T18:28:18.755Z,11.38
2023-07-03T18:30:47.712Z,11.32
2023-07-03T18:33:15.935Z,10.98
2023-07-03T18:35:44.389Z,11.50
2023-07-03T18:38:12.515Z,11.35
2023-07-03T18:40:42.116Z,11.80
2023-07-03T18:43:10.264Z,11.38
2023-07-03T18:45:38.539Z,10.70
2023-07-03T18:48:06.758Z,11.43
2023-07-03T18:50:34.978Z,11.32
2023-07-03T18:53:03.177Z,12.05
2023-07-03T18:55:31.551Z,11.05
2023-07-03T18:58:01.066Z,11.32
2023-07-03T19:00:29.217Z,11.02
2023-07-03T19:02:57.362Z,10.73
2023-07-03T19:05:25.521Z,14.70
2023-07-03T19:07:53.602Z,11.85
2023-07-03T19:10:21.897Z,15.43
2023-07-03T19:12:50.064Z,14.35
2023-07-03T19:15:19.561Z,13.18
2023-07-03T19:17:47.789Z,12.30
2023-07-03T19:20:19.276Z,13.73
2023-07-03T19:22:47.816Z,12.02
2023-07-03T19:25:15.891Z,13.00
2023-07-03T19:27:44.364Z,21.48
2023-07-03T19:30:14.306Z,17.80
2023-07-03T19:32:45.500Z,17.33
2023-07-03T19:35:14.289Z,17.25
2023-07-03T19:37:42.850Z,14.48
2023-07-03T19:40:11.383Z,14.40
2023-07-03T19:42:39.474Z,12.55
2023-07-03T19:45:09.093Z,13.18
2023-07-03T19:47:37.898Z,13.48
2023-07-03T19:50:11.678Z,13.73
2023-07-03T19:52:40.042Z,13.23
2023-07-03T19:55:08.527Z,14.05
2023-07-03T19:57:36.887Z,14.30
2023-07-03T20:00:06.387Z,13.73
2023-07-03T20:02:35.966Z,13.32
2023-07-03T20:05:04.458Z,13.85
2023-07-03T20:07:36.103Z,13.65
2023-07-03T20:10:04.667Z,13.93
2023-07-03T20:12:33.073Z,12.52
2023-07-03T20:15:01.466Z,14.40
2023-07-03T20:17:31.316Z,15.68
2023-07-03T20:19:59.584Z,14.50
2023-07-03T20:22:27.723Z,14.95
2023-07-03T20:24:57.241Z,14.60
2023-07-03T20:27:25.396Z,13.95
2023-07-03T20:29:53.782Z,14.65
2023-07-03T20:32:21.971Z,14.05
2023-07-03T20:34:51.621Z,14.63
2023-07-03T20:37:19.815Z,15.88
2023-07-03T20:39:48.725Z,16.25
2023-07-03T20:42:18.299Z,15.50
2023-07-03T20:44:47.462Z,14.50
2023-07-03T20:47:15.585Z,14.70
2023-07-03T20:49:43.782Z,14.48
2023-07-03T20:52:15.670Z,14.68
2023-07-03T20:54:55.184Z,16.35
2023-07-03T20:57:24.662Z,16.63
2023-07-03T20:59:52.922Z,15.45
2023-07-03T21:02:21.080Z,15.63
2023-07-03T21:04:49.335Z,14.45
2023-07-03T21:07:18.025Z,15.40
2023-07-03T21:09:46.404Z,15.68
2023-07-03T21:12:15.095Z,15.32
2023-07-03T21:14:44.639Z,16.02
2023-07-03T21:17:12.816Z,15.10
2023-07-03T21:19:41.064Z,15.27
2023-07-03T21:22:09.211Z,15.68
2023-07-03T21:24:37.392Z,16.27
2023-07-03T21:27:06.439Z,15.00
2023-07-03T21:29:34.561Z,15.02
2023-07-03T21:32:04.265Z,14.93
2023-07-03T21:34:32.641Z,14.02
2023-07-03T21:37:00.776Z,14.75
2023-07-03T21:39:29.029Z,14.63
2023-07-03T21:41:57.281Z,14.02
2023-07-03T21:44:25.422Z,14.15
2023-07-03T21:46:56.602Z,14.52
2023-07-03T21:49:26.131Z,14.02
2023-07-03T21:51:55.239Z,13.65
2023-07-03T21:54:23.521Z,13.27
2023-07-03T21:56:51.616Z,12.73
2023-07-03T21:59:19.658Z,14.68
2023-07-03T22:01:51.571Z,14.35
2023-07-03T22:04:19.818Z,12.68
2023-07-03T22:06:49.446Z,13.80
2023-07-03T22:09:28.620Z,14.73
2023-07-03T22:12:07.733Z,13.13
2023-07-03T22:14:36.425Z,13.38
2023-07-03T22:17:04.980Z,14.20
2023-07-03T22:19:33.218Z,14.25
2023-07-03T22:22:02.735Z,13.50
2023-07-03T22:24:30.845Z,13.98
2023-07-03T22:26:58.980Z,14.60
2023-07-03T22:29:27.096Z,14.68
2023-07-03T22:31:55.284Z,15.32
2023-07-03T22:34:23.624Z,15.15
2023-07-03T22:36:51.754Z,15.07
2023-07-03T22:39:21.398Z,15.02
2023-07-03T22:41:49.446Z,14.48
2023-07-03T22:44:17.508Z,15.02
2023-07-03T22:46:45.622Z,14.25
2023-07-03T22:49:24.618Z,15.70
2023-07-03T22:51:54.051Z,15.48
2023-07-03T22:54:23.869Z,14.95
2023-07-03T22:56:52.062Z,14.35
2023-07-03T22:59:20.135Z,14.10
2023-07-03T23:01:49.451Z,14.35
2023-07-03T23:04:18.420Z,15.02
2023-07-03T23:06:48.478Z,14.35
2023-07-03T23:09:17.863Z,14.50
2023-07-03T23:11:47.689Z,14.10
2023-07-03T23:14:16.815Z,13.35
2023-07-03T23:16:46.758Z,14.48
2023-07-03T23:19:17.819Z,15.00
2023-07-03T23:21:50.268Z,14.35
2023-07-03T23:24:18.545Z,14.02
2023-07-03T23:26:48.271Z,14.10
2023-07-03T23:29:16.813Z,13.07
2023-07-03T23:31:45.751Z,13.52
2023-07-03T23:34:14.389Z,13.40
2023-07-03T23:36:42.896Z,13.20
2023-07-03T23:39:11.833Z,14.48
2023-07-03T23:41:40.582Z,13.75
2023-07-03T23:44:10.036Z,15.77
2023-07-03T23:46:38.880Z,14.80
2023-07-03T23:49:08.465Z,16.90
2023-07-03T23:51:36.795Z,17.13
2023-07-03T23:54:06.990Z,17.55
2023-07-03T23:56:35.957Z,18.40
2023-07-03T23:59:04.817Z,18.02
